sensor_id;sensor_type;location;lat;lon;timestamp;P1;durP1;ratioP1;P2;durP2;ratioP2
49514;SDS011;35415;47.870;16.058;2022-09-25T00:01:07;5.78;;;4.10;;
49514;SDS011;35415;47.870;16.058;2022-09-25T00:03:36;4.05;;;3.33;;
49514;SDS011;35415;47.870;16.058;2022-09-25T00:06:05;6.82;;;3.90;;
49514;SDS011;35415;47.870;16.058;2022-09-25T00:08:34;4.60;;;3.83;;
49514;SDS011;35415;47.870;16.058;2022-09-25T00:11:04;5.63;;;3.95;;
49514;SDS011;35415;47.870;16.058;2022-09-25T00:13:33;5.75;;;3.90;;
49514;SDS011;35415;47.870;16.058;2022-09-25T00:16:01;5.20;;;3.58;;
49514;SDS011;35415;47.870;16.058;2022-09-25T00:18:28;5.97;;;3.60;;
49514;SDS011;35415;47.870;16.058;2022-09-25T00:21:14;6.55;;;4.28;;
49514;SDS011;35415;47.870;16.058;2022-09-25T00:23:42;6.32;;;3.90;;
49514;SDS011;35415;47.870;16.058;2022-09-25T00:26:11;8.35;;;4.10;;
49514;SDS011;35415;47.870;16.058;2022-09-25T00:28:40;7.50;;;4.10;;
49514;SDS011;35415;47.870;16.058;2022-09-25T00:31:08;5.80;;;3.60;;
49514;SDS011;35415;47.870;16.058;2022-09-25T00:33:39;7.38;;;4.07;;
49514;SDS011;35415;47.870;16.058;2022-09-25T00:36:07;6.55;;;4.05;;
49514;SDS011;35415;47.870;16.058;2022-09-25T00:38:37;4.47;;;3.45;;
49514;SDS011;35415;47.870;16.058;2022-09-25T00:41:05;5.60;;;3.88;;
49514;SDS011;35415;47.870;16.058;2022-09-25T00:43:33;5.88;;;3.80;;
49514;SDS011;35415;47.870;16.058;2022-09-25T00:46:04;6.65;;;3.90;;
49514;SDS011;35415;47.870;16.058;2022-09-25T00:48:36;5.05;;;3.53;;
49514;SDS011;35415;47.870;16.058;2022-09-25T00:51:05;4.13;;;3.25;;
49514;SDS011;35415;47.870;16.058;2022-09-25T00:53:33;5.63;;;3.80;;
49514;SDS011;35415;47.870;16.058;2022-09-25T00:56:04;6.18;;;3.70;;
49514;SDS011;35415;47.870;16.058;2022-09-25T00:58:32;5.30;;;3.83;;
49514;SDS011;35415;47.870;16.058;2022-09-25T01:01:02;5.60;;;3.63;;
49514;SDS011;35415;47.870;16.058;2022-09-25T01:03:31;5.22;;;3.58;;
49514;SDS011;35415;47.870;16.058;2022-09-25T01:05:59;4.60;;;3.63;;
49514;SDS011;35415;47.870;16.058;2022-09-25T01:08:27;6.88;;;3.50;;
49514;SDS011;35415;47.870;16.058;2022-09-25T01:10:56;9.23;;;4.75;;
49514;SDS011;35415;47.870;16.058;2022-09-25T01:13:24;5.57;;;3.58;;
49514;SDS011;35415;47.870;16.058;2022-09-25T01:15:57;6.90;;;3.90;;
49514;SDS011;35415;47.870;16.058;2022-09-25T01:18:31;6.68;;;3.90;;
49514;SDS011;35415;47.870;16.058;2022-09-25T01:21:20;5.45;;;4.07;;
49514;SDS011;35415;47.870;16.058;2022-09-25T01:24:03;5.55;;;3.75;;
49514;SDS011;35415;47.870;16.058;2022-09-25T01:26:57;4.80;;;3.30;;
49514;SDS011;35415;47.870;16.058;2022-09-25T01:29:50;5.20;;;3.55;;
49514;SDS011;35415;47.870;16.058;2022-09-25T01:32:22;6.05;;;3.90;;
49514;SDS011;35415;47.870;16.058;2022-09-25T01:37:25;11.55;;;3.83;;
49514;SDS011;35415;47.870;16.058;2022-09-25T01:42:30;7.15;;;3.85;;
49514;SDS011;35415;47.870;16.058;2022-09-25T01:45:05;10.68;;;4.15;;
49514;SDS011;35415;47.870;16.058;2022-09-25T01:47:36;6.38;;;3.85;;
49514;SDS011;35415;47.870;16.058;2022-09-25T01:50:06;6.00;;;3.92;;
49514;SDS011;35415;47.870;16.058;2022-09-25T01:52:39;7.10;;;4.32;;
49514;SDS011;35415;47.870;16.058;2022-09-25T01:55:11;4.20;;;3.78;;
49514;SDS011;35415;47.870;16.058;2022-09-25T01:57:43;5.03;;;3.92;;
49514;SDS011;35415;47.870;16.058;2022-09-25T02:00:17;6.53;;;3.70;;
49514;SDS011;35415;47.870;16.058;2022-09-25T02:02:48;6.40;;;3.60;;
49514;SDS011;35415;47.870;16.058;2022-09-25T02:05:21;6.95;;;3.60;;
49514;SDS011;35415;47.870;16.058;2022-09-25T02:07:53;7.93;;;3.85;;
49514;SDS011;35415;47.870;16.058;2022-09-25T02:10:28;5.40;;;3.50;;
49514;SDS011;35415;47.870;16.058;2022-09-25T02:15:33;8.23;;;3.75;;
49514;SDS011;35415;47.870;16.058;2022-09-25T02:18:03;6.78;;;3.80;;
49514;SDS011;35415;47.870;16.058;2022-09-25T02:20:52;4.45;;;3.80;;
49514;SDS011;35415;47.870;16.058;2022-09-25T02:23:26;4.68;;;3.90;;
49514;SDS011;35415;47.870;16.058;2022-09-25T02:26:02;6.00;;;4.70;;
49514;SDS011;35415;47.870;16.058;2022-09-25T02:28:31;6.78;;;4.03;;
49514;SDS011;35415;47.870;16.058;2022-09-25T02:31:01;7.35;;;4.43;;
49514;SDS011;35415;47.870;16.058;2022-09-25T02:33:32;8.02;;;3.88;;
49514;SDS011;35415;47.870;16.058;2022-09-25T02:35:59;4.32;;;3.78;;
49514;SDS011;35415;47.870;16.058;2022-09-25T02:38:28;4.22;;;3.45;;
49514;SDS011;35415;47.870;16.058;2022-09-25T02:41:00;5.72;;;3.53;;
49514;SDS011;35415;47.870;16.058;2022-09-25T02:43:37;6.03;;;3.80;;
49514;SDS011;35415;47.870;16.058;2022-09-25T02:46:14;5.55;;;4.22;;
49514;SDS011;35415;47.870;16.058;2022-09-25T02:48:47;5.43;;;3.80;;
49514;SDS011;35415;47.870;16.058;2022-09-25T02:51:20;5.45;;;3.60;;
49514;SDS011;35415;47.870;16.058;2022-09-25T02:53:56;4.30;;;3.67;;
49514;SDS011;35415;47.870;16.058;2022-09-25T02:56:32;4.15;;;3.70;;
49514;SDS011;35415;47.870;16.058;2022-09-25T02:59:03;5.13;;;3.50;;
49514;SDS011;35415;47.870;16.058;2022-09-25T03:01:37;5.85;;;3.67;;
49514;SDS011;35415;47.870;16.058;2022-09-25T03:04:07;3.97;;;3.53;;
49514;SDS011;35415;47.870;16.058;2022-09-25T03:06:36;3.97;;;3.55;;
49514;SDS011;35415;47.870;16.058;2022-09-25T03:09:05;6.05;;;4.22;;
49514;SDS011;35415;47.870;16.058;2022-09-25T03:11:34;4.50;;;3.20;;
49514;SDS011;35415;47.870;16.058;2022-09-25T03:14:07;5.53;;;3.85;;
49514;SDS011;35415;47.870;16.058;2022-09-25T03:16:36;4.63;;;3.70;;
49514;SDS011;35415;47.870;16.058;2022-09-25T03:19:09;5.97;;;3.70;;
49514;SDS011;35415;47.870;16.058;2022-09-25T03:21:36;7.10;;;3.78;;
49514;SDS011;35415;47.870;16.058;2022-09-25T03:24:03;4.97;;;3.63;;
49514;SDS011;35415;47.870;16.058;2022-09-25T03:26:31;5.78;;;3.45;;
49514;SDS011;35415;47.870;16.058;2022-09-25T03:28:59;5.32;;;3.88;;
49514;SDS011;35415;47.870;16.058;2022-09-25T03:31:26;5.45;;;3.90;;
49514;SDS011;35415;47.870;16.058;2022-09-25T03:33:56;4.53;;;3.63;;
49514;SDS011;35415;47.870;16.058;2022-09-25T03:36:24;4.90;;;3.58;;
49514;SDS011;35415;47.870;16.058;2022-09-25T03:38:54;4.65;;;3.40;;
49514;SDS011;35415;47.870;16.058;2022-09-25T03:41:23;6.15;;;3.72;;
49514;SDS011;35415;47.870;16.058;2022-09-25T03:43:52;5.47;;;3.55;;
49514;SDS011;35415;47.870;16.058;2022-09-25T03:46:22;4.97;;;3.63;;
49514;SDS011;35415;47.870;16.058;2022-09-25T03:48:50;7.03;;;4.63;;
49514;SDS011;35415;47.870;16.058;2022-09-25T03:51:19;4.55;;;3.90;;
49514;SDS011;35415;47.870;16.058;2022-09-25T03:53:47;7.45;;;3.30;;
49514;SDS011;35415;47.870;16.058;2022-09-25T03:56:16;4.22;;;3.60;;
49514;SDS011;35415;47.870;16.058;2022-09-25T03:58:44;7.45;;;3.53;;
49514;SDS011;35415;47.870;16.058;2022-09-25T04:01:12;6.22;;;4.10;;
49514;SDS011;35415;47.870;16.058;2022-09-25T04:03:40;6.60;;;3.60;;
49514;SDS011;35415;47.870;16.058;2022-09-25T04:06:12;6.75;;;4.10;;
49514;SDS011;35415;47.870;16.058;2022-09-25T04:08:44;4.70;;;3.60;;
49514;SDS011;35415;47.870;16.058;2022-09-25T04:11:12;5.60;;;4.13;;
49514;SDS011;35415;47.870;16.058;2022-09-25T04:13:40;7.10;;;4.13;;
49514;SDS011;35415;47.870;16.058;2022-09-25T04:16:08;5.45;;;3.97;;
49514;SDS011;35415;47.870;16.058;2022-09-25T04:18:36;5.38;;;3.90;;
49514;SDS011;35415;47.870;16.058;2022-09-25T04:21:05;4.65;;;3.67;;
49514;SDS011;35415;47.870;16.058;2022-09-25T04:23:34;5.90;;;3.83;;
49514;SDS011;35415;47.870;16.058;2022-09-25T04:26:04;5.50;;;4.20;;
49514;SDS011;35415;47.870;16.058;2022-09-25T04:28:32;4.82;;;3.70;;
49514;SDS011;35415;47.870;16.058;2022-09-25T04:31:00;6.40;;;4.53;;
49514;SDS011;35415;47.870;16.058;2022-09-25T04:33:29;4.28;;;3.33;;
49514;SDS011;35415;47.870;16.058;2022-09-25T04:36:13;5.88;;;3.67;;
49514;SDS011;35415;47.870;16.058;2022-09-25T04:38:40;5.85;;;3.60;;
49514;SDS011;35415;47.870;16.058;2022-09-25T04:41:09;10.60;;;5.80;;
49514;SDS011;35415;47.870;16.058;2022-09-25T04:43:37;7.38;;;4.40;;
49514;SDS011;35415;47.870;16.058;2022-09-25T04:46:05;5.60;;;4.30;;
49514;SDS011;35415;47.870;16.058;2022-09-25T04:48:34;6.15;;;3.92;;
49514;SDS011;35415;47.870;16.058;2022-09-25T04:51:01;4.97;;;3.60;;
49514;SDS011;35415;47.870;16.058;2022-09-25T04:53:28;6.65;;;4.22;;
49514;SDS011;35415;47.870;16.058;2022-09-25T04:55:59;5.35;;;3.63;;
49514;SDS011;35415;47.870;16.058;2022-09-25T04:58:28;4.13;;;3.60;;
49514;SDS011;35415;47.870;16.058;2022-09-25T05:00:59;5.85;;;4.15;;
49514;SDS011;35415;47.870;16.058;2022-09-25T05:03:28;7.07;;;4.70;;
49514;SDS011;35415;47.870;16.058;2022-09-25T05:05:55;6.95;;;6.07;;
49514;SDS011;35415;47.870;16.058;2022-09-25T05:08:24;6.53;;;4.30;;
49514;SDS011;35415;47.870;16.058;2022-09-25T05:10:51;5.65;;;3.97;;
49514;SDS011;35415;47.870;16.058;2022-09-25T05:13:18;6.30;;;4.28;;
49514;SDS011;35415;47.870;16.058;2022-09-25T05:15:47;8.75;;;3.67;;
49514;SDS011;35415;47.870;16.058;2022-09-25T05:18:14;6.38;;;3.97;;
49514;SDS011;35415;47.870;16.058;2022-09-25T05:20:43;4.80;;;3.83;;
49514;SDS011;35415;47.870;16.058;2022-09-25T05:23:10;6.03;;;4.07;;
49514;SDS011;35415;47.870;16.058;2022-09-25T05:25:37;5.97;;;3.72;;
49514;SDS011;35415;47.870;16.058;2022-09-25T05:28:05;5.45;;;3.65;;
49514;SDS011;35415;47.870;16.058;2022-09-25T05:30:32;4.47;;;3.97;;
49514;SDS011;35415;47.870;16.058;2022-09-25T05:33:01;5.10;;;3.65;;
49514;SDS011;35415;47.870;16.058;2022-09-25T05:35:29;4.97;;;3.38;;
49514;SDS011;35415;47.870;16.058;2022-09-25T05:37:57;5.40;;;3.95;;
49514;SDS011;35415;47.870;16.058;2022-09-25T05:40:24;5.70;;;3.70;;
49514;SDS011;35415;47.870;16.058;2022-09-25T05:42:52;5.78;;;3.65;;
49514;SDS011;35415;47.870;16.058;2022-09-25T05:45:20;4.65;;;3.70;;
49514;SDS011;35415;47.870;16.058;2022-09-25T05:47:48;5.15;;;3.75;;
49514;SDS011;35415;47.870;16.058;2022-09-25T05:50:27;9.93;;;4.45;;
49514;SDS011;35415;47.870;16.058;2022-09-25T05:52:56;8.15;;;3.92;;
49514;SDS011;35415;47.870;16.058;2022-09-25T05:55:23;6.55;;;3.95;;
49514;SDS011;35415;47.870;16.058;2022-09-25T05:57:51;4.80;;;3.63;;
49514;SDS011;35415;47.870;16.058;2022-09-25T06:00:18;6.47;;;4.00;;
49514;SDS011;35415;47.870;16.058;2022-09-25T06:02:49;5.82;;;3.97;;
49514;SDS011;35415;47.870;16.058;2022-09-25T06:05:17;5.85;;;3.80;;
49514;SDS011;35415;47.870;16.058;2022-09-25T06:07:45;6.55;;;4.15;;
49514;SDS011;35415;47.870;16.058;2022-09-25T06:10:18;5.07;;;4.07;;
49514;SDS011;35415;47.870;16.058;2022-09-25T06:12:45;7.47;;;3.83;;
49514;SDS011;35415;47.870;16.058;2022-09-25T06:15:12;4.60;;;3.63;;
49514;SDS011;35415;47.870;16.058;2022-09-25T06:17:40;7.18;;;4.20;;
49514;SDS011;35415;47.870;16.058;2022-09-25T06:20:08;5.00;;;3.88;;
49514;SDS011;35415;47.870;16.058;2022-09-25T06:22:35;7.25;;;4.25;;
49514;SDS011;35415;47.870;16.058;2022-09-25T06:25:07;6.13;;;3.80;;
49514;SDS011;35415;47.870;16.058;2022-09-25T06:27:35;5.80;;;3.70;;
49514;SDS011;35415;47.870;16.058;2022-09-25T06:30:02;7.07;;;4.07;;
49514;SDS011;35415;47.870;16.058;2022-09-25T06:32:30;6.45;;;4.15;;
49514;SDS011;35415;47.870;16.058;2022-09-25T06:34:56;6.75;;;4.55;;
49514;SDS011;35415;47.870;16.058;2022-09-25T06:37:23;6.85;;;4.15;;
49514;SDS011;35415;47.870;16.058;2022-09-25T06:39:50;5.82;;;4.03;;
49514;SDS011;35415;47.870;16.058;2022-09-25T06:42:19;4.82;;;4.05;;
49514;SDS011;35415;47.870;16.058;2022-09-25T06:44:46;7.97;;;5.38;;
49514;SDS011;35415;47.870;16.058;2022-09-25T06:47:13;5.03;;;3.80;;
49514;SDS011;35415;47.870;16.058;2022-09-25T06:49:40;7.47;;;4.38;;
49514;SDS011;35415;47.870;16.058;2022-09-25T06:52:07;6.22;;;4.13;;
49514;SDS011;35415;47.870;16.058;2022-09-25T06:54:34;5.05;;;4.03;;
49514;SDS011;35415;47.870;16.058;2022-09-25T06:57:01;6.85;;;4.03;;
49514;SDS011;35415;47.870;16.058;2022-09-25T06:59:29;5.25;;;3.67;;
49514;SDS011;35415;47.870;16.058;2022-09-25T07:01:56;6.95;;;4.13;;
49514;SDS011;35415;47.870;16.058;2022-09-25T07:04:43;6.35;;;4.72;;
49514;SDS011;35415;47.870;16.058;2022-09-25T07:07:09;6.60;;;4.75;;
49514;SDS011;35415;47.870;16.058;2022-09-25T07:09:36;6.30;;;4.07;;
49514;SDS011;35415;47.870;16.058;2022-09-25T07:12:03;5.45;;;3.83;;
49514;SDS011;35415;47.870;16.058;2022-09-25T07:14:32;4.68;;;3.25;;
49514;SDS011;35415;47.870;16.058;2022-09-25T07:16:59;6.40;;;3.70;;
49514;SDS011;35415;47.870;16.058;2022-09-25T07:19:26;5.10;;;3.83;;
49514;SDS011;35415;47.870;16.058;2022-09-25T07:21:53;7.07;;;3.70;;
49514;SDS011;35415;47.870;16.058;2022-09-25T07:24:20;4.00;;;3.45;;
49514;SDS011;35415;47.870;16.058;2022-09-25T07:26:48;5.10;;;3.53;;
49514;SDS011;35415;47.870;16.058;2022-09-25T07:29:17;35.33;;;14.85;;
49514;SDS011;35415;47.870;16.058;2022-09-25T07:31:46;9.73;;;6.40;;
49514;SDS011;35415;47.870;16.058;2022-09-25T07:34:13;5.55;;;4.15;;
49514;SDS011;35415;47.870;16.058;2022-09-25T07:36:40;5.43;;;4.20;;
49514;SDS011;35415;47.870;16.058;2022-09-25T07:39:08;5.80;;;3.63;;
49514;SDS011;35415;47.870;16.058;2022-09-25T07:41:36;6.95;;;3.83;;
49514;SDS011;35415;47.870;16.058;2022-09-25T07:44:03;5.07;;;4.00;;
49514;SDS011;35415;47.870;16.058;2022-09-25T07:46:32;6.20;;;3.50;;
49514;SDS011;35415;47.870;16.058;2022-09-25T07:49:03;4.65;;;3.83;;
49514;SDS011;35415;47.870;16.058;2022-09-25T07:51:30;5.70;;;4.32;;
49514;SDS011;35415;47.870;16.058;2022-09-25T07:53:57;5.40;;;3.90;;
49514;SDS011;35415;47.870;16.058;2022-09-25T07:56:25;6.40;;;4.30;;
49514;SDS011;35415;47.870;16.058;2022-09-25T07:58:52;5.97;;;4.32;;
49514;SDS011;35415;47.870;16.058;2022-09-25T08:01:19;6.32;;;4.28;;
49514;SDS011;35415;47.870;16.058;2022-09-25T08:03:46;7.55;;;4.70;;
49514;SDS011;35415;47.870;16.058;2022-09-25T08:06:16;5.78;;;4.32;;
49514;SDS011;35415;47.870;16.058;2022-09-25T08:08:43;5.53;;;4.47;;
49514;SDS011;35415;47.870;16.058;2022-09-25T08:11:10;5.75;;;4.45;;
49514;SDS011;35415;47.870;16.058;2022-09-25T08:13:39;6.40;;;4.70;;
49514;SDS011;35415;47.870;16.058;2022-09-25T08:16:08;5.85;;;4.55;;
49514;SDS011;35415;47.870;16.058;2022-09-25T08:18:37;7.50;;;4.68;;
49514;SDS011;35415;47.870;16.058;2022-09-25T08:21:06;7.57;;;4.88;;
49514;SDS011;35415;47.870;16.058;2022-09-25T08:23:35;13.05;;;6.78;;
49514;SDS011;35415;47.870;16.058;2022-09-25T08:26:03;15.10;;;8.40;;
49514;SDS011;35415;47.870;16.058;2022-09-25T08:28:30;66.45;;;24.73;;
49514;SDS011;35415;47.870;16.058;2022-09-25T08:30:58;33.10;;;12.77;;
49514;SDS011;35415;47.870;16.058;2022-09-25T08:33:28;13.13;;;6.95;;
49514;SDS011;35415;47.870;16.058;2022-09-25T08:35:56;14.70;;;7.07;;
49514;SDS011;35415;47.870;16.058;2022-09-25T08:38:27;10.85;;;6.45;;
49514;SDS011;35415;47.870;16.058;2022-09-25T08:40:59;11.73;;;6.97;;
49514;SDS011;35415;47.870;16.058;2022-09-25T08:43:31;13.18;;;7.00;;
49514;SDS011;35415;47.870;16.058;2022-09-25T08:46:01;12.30;;;7.60;;
49514;SDS011;35415;47.870;16.058;2022-09-25T08:48:59;12.20;;;6.90;;
49514;SDS011;35415;47.870;16.058;2022-09-25T08:51:31;10.13;;;5.82;;
49514;SDS011;35415;47.870;16.058;2022-09-25T08:54:01;9.82;;;6.32;;
49514;SDS011;35415;47.870;16.058;2022-09-25T08:56:32;14.02;;;7.90;;
49514;SDS011;35415;47.870;16.058;2022-09-25T08:59:03;10.85;;;7.20;;
49514;SDS011;35415;47.870;16.058;2022-09-25T09:01:40;11.35;;;7.28;;
49514;SDS011;35415;47.870;16.058;2022-09-25T09:04:13;15.43;;;10.18;;
49514;SDS011;35415;47.870;16.058;2022-09-25T09:06:45;12.80;;;8.05;;
49514;SDS011;35415;47.870;16.058;2022-09-25T09:09:18;11.82;;;8.38;;
49514;SDS011;35415;47.870;16.058;2022-09-25T09:11:53;11.48;;;7.88;;
49514;SDS011;35415;47.870;16.058;2022-09-25T09:14:27;10.30;;;6.50;;
49514;SDS011;35415;47.870;16.058;2022-09-25T09:16:59;10.77;;;7.88;;
49514;SDS011;35415;47.870;16.058;2022-09-25T09:19:31;9.38;;;7.70;;
49514;SDS011;35415;47.870;16.058;2022-09-25T09:22:01;9.40;;;7.40;;
49514;SDS011;35415;47.870;16.058;2022-09-25T09:24:39;9.23;;;6.78;;
49514;SDS011;35415;47.870;16.058;2022-09-25T09:27:27;13.88;;;9.40;;
49514;SDS011;35415;47.870;16.058;2022-09-25T09:30:16;9.50;;;6.20;;
49514;SDS011;35415;47.870;16.058;2022-09-25T09:35:41;7.57;;;5.97;;
49514;SDS011;35415;47.870;16.058;2022-09-25T09:38:18;7.68;;;6.32;;
49514;SDS011;35415;47.870;16.058;2022-09-25T09:41:04;11.50;;;8.68;;
49514;SDS011;35415;47.870;16.058;2022-09-25T09:43:42;8.90;;;6.57;;
49514;SDS011;35415;47.870;16.058;2022-09-25T09:46:21;11.02;;;7.05;;
49514;SDS011;35415;47.870;16.058;2022-09-25T09:48:59;17.45;;;10.02;;
49514;SDS011;35415;47.870;16.058;2022-09-25T09:51:33;13.05;;;8.60;;
49514;SDS011;35415;47.870;16.058;2022-09-25T09:54:08;18.77;;;10.73;;
49514;SDS011;35415;47.870;16.058;2022-09-25T09:56:41;16.88;;;9.35;;
49514;SDS011;35415;47.870;16.058;2022-09-25T09:59:15;14.88;;;6.97;;
49514;SDS011;35415;47.870;16.058;2022-09-25T10:01:56;12.85;;;7.28;;
49514;SDS011;35415;47.870;16.058;2022-09-25T10:04:29;9.63;;;6.20;;
49514;SDS011;35415;47.870;16.058;2022-09-25T10:07:02;10.23;;;5.95;;
49514;SDS011;35415;47.870;16.058;2022-09-25T10:09:33;9.97;;;6.97;;
49514;SDS011;35415;47.870;16.058;2022-09-25T10:12:03;7.78;;;6.72;;
49514;SDS011;35415;47.870;16.058;2022-09-25T10:14:40;10.63;;;6.60;;
49514;SDS011;35415;47.870;16.058;2022-09-25T10:17:11;9.85;;;6.57;;
49514;SDS011;35415;47.870;16.058;2022-09-25T10:19:42;9.15;;;6.38;;
49514;SDS011;35415;47.870;16.058;2022-09-25T10:22:14;9.65;;;5.85;;
49514;SDS011;35415;47.870;16.058;2022-09-25T10:24:46;12.20;;;6.43;;
49514;SDS011;35415;47.870;16.058;2022-09-25T10:30:14;9.43;;;6.47;;
49514;SDS011;35415;47.870;16.058;2022-09-25T10:32:50;8.20;;;5.75;;
49514;SDS011;35415;47.870;16.058;2022-09-25T10:35:27;8.93;;;6.78;;
49514;SDS011;35415;47.870;16.058;2022-09-25T10:37:56;9.10;;;5.82;;
49514;SDS011;35415;47.870;16.058;2022-09-25T10:40:27;7.03;;;5.60;;
49514;SDS011;35415;47.870;16.058;2022-09-25T10:43:05;10.00;;;6.28;;
49514;SDS011;35415;47.870;16.058;2022-09-25T10:45:42;6.28;;;5.35;;
49514;SDS011;35415;47.870;16.058;2022-09-25T10:48:26;9.23;;;5.78;;
49514;SDS011;35415;47.870;16.058;2022-09-25T10:51:13;9.27;;;6.30;;
49514;SDS011;35415;47.870;16.058;2022-09-25T10:53:43;9.05;;;6.90;;
49514;SDS011;35415;47.870;16.058;2022-09-25T10:56:13;11.45;;;8.07;;
49514;SDS011;35415;47.870;16.058;2022-09-25T10:58:43;10.82;;;7.40;;
49514;SDS011;35415;47.870;16.058;2022-09-25T11:01:16;11.75;;;7.85;;
49514;SDS011;35415;47.870;16.058;2022-09-25T11:03:45;11.70;;;8.27;;
49514;SDS011;35415;47.870;16.058;2022-09-25T11:06:17;15.40;;;8.05;;
49514;SDS011;35415;47.870;16.058;2022-09-25T11:08:53;10.05;;;7.90;;
49514;SDS011;35415;47.870;16.058;2022-09-25T11:11:29;11.20;;;7.07;;
49514;SDS011;35415;47.870;16.058;2022-09-25T11:13:57;9.40;;;7.75;;
49514;SDS011;35415;47.870;16.058;2022-09-25T11:16:48;9.98;;;7.22;;
49514;SDS011;35415;47.870;16.058;2022-09-25T11:19:25;10.50;;;8.25;;
49514;SDS011;35415;47.870;16.058;2022-09-25T11:21:56;10.90;;;8.07;;
49514;SDS011;35415;47.870;16.058;2022-09-25T11:24:32;12.13;;;8.95;;
49514;SDS011;35415;47.870;16.058;2022-09-25T11:27:13;12.48;;;7.82;;
49514;SDS011;35415;47.870;16.058;2022-09-25T11:29:46;16.83;;;8.10;;
49514;SDS011;35415;47.870;16.058;2022-09-25T11:32:24;11.50;;;8.27;;
49514;SDS011;35415;47.870;16.058;2022-09-25T11:35:05;9.63;;;8.23;;
49514;SDS011;35415;47.870;16.058;2022-09-25T11:37:48;12.57;;;8.95;;
49514;SDS011;35415;47.870;16.058;2022-09-25T11:40:29;10.20;;;8.18;;
49514;SDS011;35415;47.870;16.058;2022-09-25T11:43:24;12.13;;;9.65;;
49514;SDS011;35415;47.870;16.058;2022-09-25T11:46:03;10.70;;;8.23;;
49514;SDS011;35415;47.870;16.058;2022-09-25T11:48:44;9.88;;;8.18;;
49514;SDS011;35415;47.870;16.058;2022-09-25T11:51:22;14.70;;;9.70;;
49514;SDS011;35415;47.870;16.058;2022-09-25T11:54:04;10.75;;;7.95;;
49514;SDS011;35415;47.870;16.058;2022-09-25T11:56:44;11.45;;;7.90;;
49514;SDS011;35415;47.870;16.058;2022-09-25T11:59:26;12.88;;;8.70;;
49514;SDS011;35415;47.870;16.058;2022-09-25T12:02:08;10.57;;;8.88;;
49514;SDS011;35415;47.870;16.058;2022-09-25T12:04:48;14.45;;;8.77;;
49514;SDS011;35415;47.870;16.058;2022-09-25T12:07:43;14.60;;;9.15;;
49514;SDS011;35415;47.870;16.058;2022-09-25T12:10:35;13.07;;;9.77;;
49514;SDS011;35415;47.870;16.058;2022-09-25T12:13:14;15.63;;;9.98;;
49514;SDS011;35415;47.870;16.058;2022-09-25T12:15:49;12.98;;;9.45;;
49514;SDS011;35415;47.870;16.058;2022-09-25T12:18:31;14.43;;;9.85;;
49514;SDS011;35415;47.870;16.058;2022-09-25T12:21:16;15.32;;;10.95;;
49514;SDS011;35415;47.870;16.058;2022-09-25T12:23:48;14.98;;;11.68;;
49514;SDS011;35415;47.870;16.058;2022-09-25T12:26:23;13.00;;;10.88;;
49514;SDS011;35415;47.870;16.058;2022-09-25T12:29:01;15.10;;;10.93;;
49514;SDS011;35415;47.870;16.058;2022-09-25T12:31:46;13.60;;;10.18;;
49514;SDS011;35415;47.870;16.058;2022-09-25T12:34:23;15.70;;;12.50;;
49514;SDS011;35415;47.870;16.058;2022-09-25T12:37:06;15.65;;;11.68;;
49514;SDS011;35415;47.870;16.058;2022-09-25T12:39:46;17.98;;;11.55;;
49514;SDS011;35415;47.870;16.058;2022-09-25T12:42:19;14.00;;;11.02;;
49514;SDS011;35415;47.870;16.058;2022-09-25T12:44:52;14.18;;;11.07;;
49514;SDS011;35415;47.870;16.058;2022-09-25T12:47:27;13.93;;;10.80;;
49514;SDS011;35415;47.870;16.058;2022-09-25T12:50:00;12.98;;;10.60;;
49514;SDS011;35415;47.870;16.058;2022-09-25T12:52:36;13.68;;;10.07;;
49514;SDS011;35415;47.870;16.058;2022-09-25T12:55:09;14.52;;;9.77;;
49514;SDS011;35415;47.870;16.058;2022-09-25T12:57:44;13.57;;;10.38;;
49514;SDS011;35415;47.870;16.058;2022-09-25T13:00:16;13.55;;;10.40;;
49514;SDS011;35415;47.870;16.058;2022-09-25T13:02:47;14.65;;;10.60;;
49514;SDS011;35415;47.870;16.058;2022-09-25T13:05:22;13.10;;;9.98;;
49514;SDS011;35415;47.870;16.058;2022-09-25T13:07:56;14.77;;;10.43;;
49514;SDS011;35415;47.870;16.058;2022-09-25T13:10:36;13.63;;;11.30;;
49514;SDS011;35415;47.870;16.058;2022-09-25T13:13:08;14.48;;;10.52;;
49514;SDS011;35415;47.870;16.058;2022-09-25T13:15:43;14.82;;;11.60;;
49514;SDS011;35415;47.870;16.058;2022-09-25T13:18:15;15.68;;;11.07;;
49514;SDS011;35415;47.870;16.058;2022-09-25T13:20:46;18.35;;;13.68;;
49514;SDS011;35415;47.870;16.058;2022-09-25T13:23:29;21.13;;;13.40;;
49514;SDS011;35415;47.870;16.058;2022-09-25T13:26:01;21.55;;;14.43;;
49514;SDS011;35415;47.870;16.058;2022-09-25T13:28:40;14.25;;;10.82;;
49514;SDS011;35415;47.870;16.058;2022-09-25T13:31:20;12.88;;;10.15;;
49514;SDS011;35415;47.870;16.058;2022-09-25T13:33:52;13.98;;;10.43;;
49514;SDS011;35415;47.870;16.058;2022-09-25T13:36:30;14.38;;;11.57;;
49514;SDS011;35415;47.870;16.058;2022-09-25T13:39:15;15.98;;;11.40;;
49514;SDS011;35415;47.870;16.058;2022-09-25T13:42:03;11.68;;;9.55;;
49514;SDS011;35415;47.870;16.058;2022-09-25T13:50:23;14.02;;;10.93;;
49514;SDS011;35415;47.870;16.058;2022-09-25T14:01:53;11.00;;;8.93;;
49514;SDS011;35415;47.870;16.058;2022-09-25T14:04:24;13.80;;;8.98;;
49514;SDS011;35415;47.870;16.058;2022-09-25T14:07:03;12.00;;;9.70;;
49514;SDS011;35415;47.870;16.058;2022-09-25T14:09:36;10.98;;;9.82;;
49514;SDS011;35415;47.870;16.058;2022-09-25T14:12:12;13.38;;;9.63;;
49514;SDS011;35415;47.870;16.058;2022-09-25T14:14:45;10.38;;;8.60;;
49514;SDS011;35415;47.870;16.058;2022-09-25T14:17:20;9.80;;;8.43;;
49514;SDS011;35415;47.870;16.058;2022-09-25T14:19:52;10.93;;;8.55;;
49514;SDS011;35415;47.870;16.058;2022-09-25T14:22:26;9.57;;;8.48;;
49514;SDS011;35415;47.870;16.058;2022-09-25T14:27:53;12.93;;;9.50;;
49514;SDS011;35415;47.870;16.058;2022-09-25T14:30:21;10.98;;;8.18;;
49514;SDS011;35415;47.870;16.058;2022-09-25T14:32:58;8.68;;;7.25;;
49514;SDS011;35415;47.870;16.058;2022-09-25T14:35:45;12.55;;;8.00;;
49514;SDS011;35415;47.870;16.058;2022-09-25T14:38:28;9.20;;;6.78;;
49514;SDS011;35415;47.870;16.058;2022-09-25T14:41:32;8.55;;;7.32;;
49514;SDS011;35415;47.870;16.058;2022-09-25T14:47:23;9.27;;;7.28;;
49514;SDS011;35415;47.870;16.058;2022-09-25T14:49:56;7.95;;;7.15;;
49514;SDS011;35415;47.870;16.058;2022-09-25T14:52:26;10.35;;;7.18;;
49514;SDS011;35415;47.870;16.058;2022-09-25T14:54:57;8.88;;;7.50;;
49514;SDS011;35415;47.870;16.058;2022-09-25T14:57:26;8.65;;;7.50;;
49514;SDS011;35415;47.870;16.058;2022-09-25T14:59:56;18.23;;;14.27;;
49514;SDS011;35415;47.870;16.058;2022-09-25T15:02:30;21.20;;;16.92;;
49514;SDS011;35415;47.870;16.058;2022-09-25T15:05:18;33.05;;;24.83;;
49514;SDS011;35415;47.870;16.058;2022-09-25T15:10:25;13.25;;;10.23;;
49514;SDS011;35415;47.870;16.058;2022-09-25T15:13:03;13.57;;;9.77;;
49514;SDS011;35415;47.870;16.058;2022-09-25T15:15:32;11.55;;;8.30;;
49514;SDS011;35415;47.870;16.058;2022-09-25T15:18:01;12.90;;;8.38;;
49514;SDS011;35415;47.870;16.058;2022-09-25T15:20:29;10.85;;;8.77;;
49514;SDS011;35415;47.870;16.058;2022-09-25T15:22:59;9.55;;;7.00;;
49514;SDS011;35415;47.870;16.058;2022-09-25T15:25:29;8.88;;;7.05;;
49514;SDS011;35415;47.870;16.058;2022-09-25T15:28:00;7.90;;;7.10;;
49514;SDS011;35415;47.870;16.058;2022-09-25T15:30:30;10.52;;;7.28;;
49514;SDS011;35415;47.870;16.058;2022-09-25T15:33:02;7.57;;;6.78;;
49514;SDS011;35415;47.870;16.058;2022-09-25T15:35:29;8.55;;;6.95;;